createdAt,value
2022-07-30T00:04:54.634Z,67571.56
2022-07-30T00:09:58.354Z,67522.88
2022-07-30T00:15:02.099Z,67549.28
2022-07-30T00:20:09.382Z,67575.31
2022-07-30T00:25:16.363Z,67509.97
2022-07-30T00:30:20.232Z,67457.47
2022-07-30T00:35:25.220Z,67516.31
2022-07-30T00:40:32.618Z,67532.03
2022-07-30T00:45:37.488Z,67542.94
2022-07-30T00:50:42.954Z,67536.28
2022-07-30T00:55:49.356Z,67547.28
2022-07-30T01:00:53.501Z,67420.97
2022-07-30T01:05:58.667Z,67426.00
2022-07-30T01:11:03.265Z,67467.16
2022-07-30T01:16:07.337Z,67500.75
2022-07-30T01:21:16.764Z,67539.59
2022-07-30T01:26:23.614Z,67548.84
2022-07-30T01:31:29.281Z,67446.53
2022-07-30T01:36:33.829Z,67428.63
2022-07-30T01:41:40.789Z,67455.19
2022-07-30T01:46:45.375Z,67493.59
2022-07-30T01:51:49.996Z,67513.69
2022-07-30T01:56:57.886Z,67505.03
2022-07-30T02:02:03.257Z,67529.91
2022-07-30T02:07:15.868Z,67469.84
2022-07-30T02:12:30.091Z,67504.44
2022-07-30T02:17:44.307Z,67447.06
2022-07-30T02:22:50.255Z,67466.53
2022-07-30T02:27:59.232Z,67454.13
2022-07-30T02:33:06.763Z,67411.38
2022-07-30T02:38:13.079Z,67457.34
2022-07-30T02:43:20.851Z,67501.78
2022-07-30T02:48:34.641Z,67471.97
2022-07-30T02:53:42.152Z,67436.22
2022-07-30T02:58:48.240Z,67381.25
2022-07-30T03:03:53.935Z,67469.84
2022-07-30T03:08:58.440Z,67477.00
2022-07-30T03:14:03.928Z,67349.78
2022-07-30T03:19:10.120Z,67375.78
2022-07-30T03:24:17.438Z,67315.22
2022-07-30T03:29:25.807Z,67340.09
2022-07-30T03:34:30.619Z,67360.63
2022-07-30T03:39:36.362Z,67364.97
2022-07-30T03:44:45.846Z,67343.91
2022-07-30T03:49:50.315Z,67376.25
2022-07-30T03:54:54.466Z,67406.03
2022-07-30T04:00:18.480Z,67413.63
2022-07-30T04:05:27.391Z,67420.13
2022-07-30T04:10:42.368Z,67398.34
2022-07-30T04:16:41.572Z,67324.97
2022-07-30T04:21:34.685Z,67328.84
2022-07-30T04:26:39.531Z,67410.84
2022-07-30T04:31:45.249Z,67400.53
2022-07-30T04:37:07.752Z,67447.69
2022-07-30T04:42:12.827Z,67422.28
2022-07-30T04:47:19.650Z,67354.69
2022-07-30T04:52:44.488Z,67383.22
2022-07-30T04:57:53.522Z,67415.66
2022-07-30T05:02:59.345Z,67356.31
2022-07-30T05:08:03.771Z,67394.69
2022-07-30T05:18:19.226Z,67464.94
2022-07-30T05:23:23.929Z,67540.19
2022-07-30T05:28:48.463Z,67528.88
2022-07-30T05:34:02.807Z,67522.28
2022-07-30T05:39:14.174Z,67589.38
2022-07-30T05:44:42.520Z,67604.66
2022-07-30T05:49:47.864Z,67574.81
2022-07-30T05:54:51.787Z,67577.47
2022-07-30T06:00:02.279Z,67598.06
2022-07-30T06:05:28.314Z,67675.47
2022-07-30T06:10:36.071Z,67591.19
2022-07-30T06:15:39.913Z,67635.50
2022-07-30T06:20:45.081Z,67668.53
2022-07-30T06:25:54.110Z,67719.94
2022-07-30T06:30:58.184Z,67728.16
2022-07-30T06:36:06.612Z,67693.94
2022-07-30T06:41:21.922Z,67665.31
2022-07-30T06:46:29.412Z,67663.19
2022-07-30T06:51:34.608Z,67742.72
2022-07-30T06:56:38.692Z,67844.00
2022-07-30T07:01:44.896Z,67870.59
2022-07-30T07:06:50.774Z,67972.63
2022-07-30T07:12:03.742Z,67915.06
2022-07-30T07:17:08.644Z,67909.16
2022-07-30T07:22:32.409Z,67803.88
2022-07-30T07:27:36.366Z,67775.78
2022-07-30T07:32:40.439Z,67846.72
2022-07-30T07:37:46.151Z,67755.16
2022-07-30T07:42:56.898Z,67799.66
2022-07-30T07:48:00.865Z,67794.22
2022-07-30T07:53:32.193Z,67792.00
2022-07-30T07:58:36.330Z,67851.69
2022-07-30T08:03:42.348Z,67786.03
2022-07-30T08:09:07.193Z,67920.50
2022-07-30T08:14:34.305Z,67898.22
2022-07-30T08:19:59.706Z,67961.75
2022-07-30T08:25:05.582Z,68019.22
2022-07-30T08:30:10.342Z,68111.50
2022-07-30T08:35:14.933Z,68133.84
2022-07-30T08:40:21.305Z,68101.75
2022-07-30T08:45:34.768Z,68101.81
2022-07-30T08:50:59.597Z,68157.69
2022-07-30T08:56:23.145Z,68225.59
2022-07-30T09:01:27.014Z,68193.66
2022-07-30T09:06:33.164Z,68184.88
2022-07-30T09:11:39.737Z,68162.00
2022-07-30T09:16:44.899Z,68191.88
2022-07-30T09:21:56.657Z,68237.06
2022-07-30T09:27:10.221Z,68073.53
2022-07-30T09:32:19.656Z,68125.16
2022-07-30T09:37:41.929Z,68043.63
2022-07-30T09:43:16.121Z,68122.41
2022-07-30T09:48:23.728Z,68253.94
2022-07-30T09:53:27.192Z,68318.00
2022-07-30T09:58:45.673Z,68230.00
2022-07-30T10:03:50.844Z,68334.28
2022-07-30T10:09:27.201Z,68240.31
2022-07-30T10:14:33.957Z,68264.19
2022-07-30T10:19:47.245Z,68214.72
2022-07-30T10:25:16.029Z,68170.78
2022-07-30T10:30:51.718Z,68290.38
2022-07-30T10:35:55.844Z,68217.97
2022-07-30T10:41:02.829Z,68312.53
2022-07-30T10:46:22.757Z,68268.56
2022-07-30T10:51:41.442Z,68178.94
2022-07-30T10:57:04.242Z,68182.19
2022-07-30T11:02:12.241Z,68425.13
2022-07-30T11:07:31.885Z,68613.47
2022-07-30T11:12:54.654Z,68528.00
2022-07-30T11:18:03.147Z,68544.34
2022-07-30T11:23:14.292Z,68545.97
2022-07-30T11:28:34.959Z,68505.16
2022-07-30T11:33:40.165Z,68438.78
2022-07-30T11:38:54.624Z,68576.41
2022-07-30T11:44:19.596Z,68880.97
2022-07-30T11:49:24.543Z,69008.09
2022-07-30T11:54:28.180Z,68942.63
2022-07-30T11:59:31.813Z,69053.88
2022-07-30T12:04:44.168Z,68785.00
2022-07-30T12:09:47.738Z,68615.63
2022-07-30T12:14:52.012Z,68677.72
2022-07-30T12:19:58.226Z,68698.91
2022-07-30T12:25:07.686Z,68713.19
2022-07-30T12:30:11.460Z,68846.09
2022-07-30T12:35:16.408Z,68924.66
2022-07-30T12:40:20.145Z,68923.00
2022-07-30T12:45:27.086Z,68945.91
2022-07-30T12:50:32.019Z,68840.13
2022-07-30T12:55:37.548Z,68899.53
2022-07-30T13:00:51.151Z,68791.00
2022-07-30T13:05:57.207Z,68875.00
2022-07-30T13:11:01.655Z,68831.41
2022-07-30T13:16:06.445Z,68755.16
2022-07-30T13:21:11.435Z,68707.16
2022-07-30T13:26:14.938Z,68621.13
2022-07-30T13:31:19.341Z,68585.66
2022-07-30T13:36:24.889Z,68625.41
2022-07-30T13:41:28.610Z,68553.59
2022-07-30T13:46:32.214Z,68505.69
2022-07-30T13:51:37.165Z,68469.78
2022-07-30T13:56:41.610Z,68507.84
2022-07-30T14:01:45.250Z,68476.81
2022-07-30T14:06:50.238Z,68428.97
2022-07-30T14:11:54.196Z,68280.00
2022-07-30T14:16:57.747Z,68019.72
2022-07-30T14:22:02.798Z,67709.59
2022-07-30T14:27:06.457Z,67689.03
2022-07-30T14:32:10.007Z,67679.28
2022-07-30T14:37:14.854Z,67410.84
2022-07-30T14:42:20.608Z,67139.13
2022-07-30T14:47:24.080Z,67105.81
2022-07-30T14:52:35.114Z,67148.31
2022-07-30T14:57:38.919Z,67138.28
2022-07-30T15:02:42.609Z,67153.25
2022-07-30T15:07:47.729Z,67192.03
2022-07-30T15:12:51.288Z,67240.56
2022-07-30T15:17:55.405Z,67263.97
2022-07-30T15:23:00.604Z,67259.63
2022-07-30T15:28:04.288Z,67237.47
2022-07-30T15:33:07.780Z,67414.56
2022-07-30T15:38:13.602Z,67410.34
2022-07-30T15:43:17.632Z,67411.38
2022-07-30T15:48:26.472Z,67368.75
2022-07-30T15:53:32.223Z,67275.25
2022-07-30T15:58:39.222Z,67378.00
2022-07-30T16:03:45.299Z,67403.69
2022-07-30T16:08:50.114Z,67416.88
2022-07-30T16:13:53.809Z,67449.38
2022-07-30T16:18:57.413Z,67494.31
2022-07-30T16:24:03.317Z,67377.88
2022-07-30T16:29:10.731Z,67367.59
2022-07-30T16:34:17.276Z,67315.72
2022-07-30T16:39:28.656Z,67243.41
2022-07-30T16:44:34.304Z,67231.44
2022-07-30T16:49:38.004Z,67246.56
2022-07-30T16:54:43.006Z,67214.22
2022-07-30T16:59:47.952Z,67209.97
2022-07-30T17:04:51.658Z,67298.50
2022-07-30T17:09:58.638Z,67353.09
2022-07-30T17:15:05.524Z,67384.91
2022-07-30T17:20:10.177Z,67374.69
2022-07-30T17:25:15.827Z,67429.78
2022-07-30T17:30:19.982Z,67456.88
2022-07-30T17:35:27.071Z,67438.91
2022-07-30T18:53:49.467Z,67187.25
2022-07-30T18:58:53.294Z,67214.63
2022-07-30T19:03:57.137Z,67272.63
2022-07-30T19:09:02.205Z,67312.47
2022-07-30T19:14:06.158Z,67332.06
2022-07-30T19:19:12.907Z,67335.25
2022-07-30T19:24:17.917Z,67347.06
2022-07-30T19:29:21.672Z,67288.69
2022-07-30T19:34:26.490Z,67349.22
2022-07-30T19:39:31.875Z,67309.22
2022-07-30T19:44:41.069Z,67303.28
2022-07-30T19:49:44.905Z,67317.41
2022-07-30T19:54:50.132Z,67276.41
2022-07-30T20:00:00.198Z,67294.72
2022-07-30T20:05:15.944Z,67320.03
2022-07-30T20:10:21.150Z,67273.59
2022-07-30T20:15:24.981Z,67274.72
2022-07-30T20:20:29.156Z,67272.50
2022-07-30T20:25:36.968Z,67313.09
2022-07-30T20:30:41.816Z,67370.38
2022-07-30T20:35:46.015Z,67396.31
2022-07-30T20:40:53.846Z,67389.34
2022-07-30T20:45:58.484Z,67404.34
2022-07-30T20:51:02.387Z,67417.94
2022-07-30T20:56:09.326Z,67425.00
2022-07-30T21:01:15.609Z,67425.53
2022-07-30T21:06:22.401Z,67414.16
2022-07-30T21:11:27.658Z,67382.69
2022-07-30T21:16:33.948Z,67421.19
2022-07-30T21:21:41.669Z,67435.38
2022-07-30T21:26:53.999Z,67421.19
2022-07-30T21:32:08.991Z,67447.16
2022-07-30T21:37:15.640Z,67380.16
2022-07-30T21:42:30.316Z,67333.16
2022-07-30T21:47:34.303Z,67325.50
2022-07-30T21:52:38.508Z,67373.63
2022-07-30T21:57:43.526Z,67314.69
2022-07-30T22:02:53.155Z,67321.19
2022-07-30T22:07:57.879Z,67292.00
2022-07-30T22:13:03.043Z,67284.44
2022-07-30T22:18:08.016Z,67302.88
2022-07-30T22:23:11.855Z,67242.88
2022-07-30T22:28:17.706Z,67224.41
2022-07-30T22:33:21.575Z,67276.34
2022-07-30T22:38:27.195Z,67274.84
2022-07-30T22:43:34.110Z,67229.41
2022-07-30T22:48:44.781Z,67276.28
2022-07-30T22:54:03.000Z,67235.75
2022-07-30T22:59:13.680Z,67250.50
2022-07-30T23:04:18.300Z,67284.44
2022-07-30T23:09:22.212Z,67229.50
2022-07-30T23:14:28.819Z,67210.44
2022-07-30T23:19:32.887Z,67263.44
2022-07-30T23:24:36.633Z,67224.41
2022-07-30T23:29:41.617Z,67260.69
2022-07-30T23:34:45.374Z,67299.63
2022-07-30T23:39:49.054Z,67257.03
2022-07-30T23:44:54.128Z,67227.19
2022-07-30T23:49:58.756Z,67272.03
2022-07-30T23:55:02.408Z,67313.13
